createdAt,value
2018-07-19T00:01:57.709Z,100600.73
2018-07-19T00:04:28.004Z,100600.98
2018-07-19T00:06:57.475Z,100600.98
2018-07-19T00:09:26.530Z,100598.53
2018-07-19T00:11:55.533Z,100594.70
2018-07-19T00:14:24.582Z,100599.58
2018-07-19T00:16:54.435Z,100597.09
2018-07-19T00:19:23.284Z,100591.89
2018-07-19T00:21:52.807Z,100595.63
2018-07-19T00:24:21.799Z,100588.53
2018-07-19T00:26:50.563Z,100584.69
2018-07-19T00:29:19.415Z,100582.74
2018-07-19T00:31:48.906Z,100581.38
2018-07-19T00:34:18.190Z,100580.00
2018-07-19T00:36:46.943Z,100586.25
2018-07-19T00:39:16.432Z,100588.68
2018-07-19T00:41:46.705Z,100580.81
2018-07-19T00:44:16.874Z,100580.84
2018-07-19T00:46:46.259Z,100574.62
2018-07-19T00:49:15.098Z,100583.33
2018-07-19T00:51:44.003Z,100581.44
2018-07-19T00:54:12.847Z,100579.55
2018-07-19T00:56:42.661Z,100582.54
2018-07-19T00:59:11.450Z,100580.67
2018-07-19T01:01:41.386Z,100574.64
2018-07-19T01:04:10.899Z,100581.97
2018-07-19T01:06:39.675Z,100574.36
2018-07-19T01:09:10.591Z,100577.05
2018-07-19T01:11:39.661Z,100579.74
2018-07-19T01:14:08.735Z,100575.67
2018-07-19T01:16:38.190Z,100572.95
2018-07-19T01:19:07.007Z,100574.03
2018-07-19T01:21:36.446Z,100572.92
2018-07-19T01:24:05.332Z,100580.02
2018-07-19T01:26:34.161Z,100576.20
2018-07-19T01:29:03.320Z,100577.84
2018-07-19T01:31:32.434Z,100573.52
2018-07-19T01:34:01.579Z,100579.48
2018-07-19T01:36:30.855Z,100568.09
2018-07-19T01:39:00.502Z,100581.38
2018-07-19T01:42:18.764Z,100575.92
2018-07-19T01:44:47.530Z,100582.69
2018-07-19T01:47:16.340Z,100573.18
2018-07-19T01:49:45.971Z,100573.49
2018-07-19T01:52:15.220Z,100574.56
2018-07-19T01:54:44.189Z,100571.59
2018-07-19T01:57:14.709Z,100573.52
2018-07-19T01:59:44.067Z,100570.86
2018-07-19T02:02:13.753Z,100570.09
2018-07-19T02:04:43.356Z,100563.86
2018-07-19T02:07:12.224Z,100561.73
2018-07-19T02:09:41.070Z,100561.50
2018-07-19T02:12:10.019Z,100560.70
2018-07-19T02:14:38.891Z,100558.22
2018-07-19T02:17:08.042Z,100557.66
2018-07-19T02:19:36.855Z,100557.91
2018-07-19T02:22:05.737Z,100556.53
2018-07-19T02:24:34.692Z,100554.58
2018-07-19T02:27:03.708Z,100562.45
2018-07-19T02:29:33.885Z,100565.47
2018-07-19T02:32:03.334Z,100561.75
2018-07-19T02:34:32.808Z,100555.80
2018-07-19T02:37:02.707Z,100555.55
2018-07-19T02:39:31.755Z,100551.48
2018-07-19T02:42:01.324Z,100553.64
2018-07-19T02:44:30.683Z,100553.91
2018-07-19T02:46:59.584Z,100552.50
2018-07-19T02:49:28.588Z,100556.58
2018-07-19T02:51:57.505Z,100556.34
2018-07-19T02:54:27.330Z,100545.76
2018-07-19T02:56:56.934Z,100545.22
2018-07-19T02:59:25.833Z,100543.95
2018-07-19T03:01:55.877Z,100555.56
2018-07-19T03:04:26.003Z,100550.73
2018-07-19T03:06:54.809Z,100556.00
2018-07-19T03:09:24.191Z,100556.91
2018-07-19T03:11:52.991Z,100553.70
2018-07-19T03:14:21.772Z,100553.73
2018-07-19T03:16:51.237Z,100560.27
2018-07-19T03:19:20.075Z,100562.99
2018-07-19T03:21:49.171Z,100565.41
2018-07-19T03:24:18.026Z,100568.41
2018-07-19T03:26:46.819Z,100569.23
2018-07-19T03:29:15.685Z,100574.36
2018-07-19T03:31:44.472Z,100561.79
2018-07-19T03:34:13.186Z,100566.39
2018-07-19T03:36:42.587Z,100567.98
2018-07-19T03:39:11.987Z,100566.34
2018-07-19T03:41:41.774Z,100569.60
2018-07-19T03:44:10.539Z,100561.72
2018-07-19T03:46:39.355Z,100566.08
2018-07-19T03:49:08.125Z,100557.93
2018-07-19T03:51:36.938Z,100564.47
2018-07-19T03:54:06.306Z,100557.12
2018-07-19T03:56:35.846Z,100562.32
2018-07-19T03:59:04.615Z,100564.50
2018-07-19T04:01:34.373Z,100556.09
2018-07-19T04:04:03.892Z,100559.63
2018-07-19T04:06:32.917Z,100555.33
2018-07-19T04:09:01.948Z,100553.98
2018-07-19T04:11:31.499Z,100560.80
2018-07-19T04:14:00.364Z,100561.06
2018-07-19T04:16:30.192Z,100568.98
2018-07-19T04:18:59.148Z,100562.98
2018-07-19T04:21:27.938Z,100568.72
2018-07-19T04:23:56.935Z,100571.45
2018-07-19T04:26:26.011Z,100572.53
2018-07-19T04:28:54.906Z,100573.38
2018-07-19T04:31:23.755Z,100567.94
2018-07-19T04:33:52.538Z,100561.12
2018-07-19T04:36:22.310Z,100566.04
2018-07-19T04:38:51.138Z,100565.52
2018-07-19T04:41:20.712Z,100572.31
2018-07-19T04:43:49.511Z,100573.14
2018-07-19T04:46:18.340Z,100575.84
2018-07-19T04:48:47.155Z,100572.84
2018-07-19T04:51:15.925Z,100570.12
2018-07-19T04:53:45.437Z,100572.03
2018-07-19T04:56:15.463Z,100571.45
2018-07-19T04:58:44.204Z,100567.36
2018-07-19T05:01:13.064Z,100572.52
2018-07-19T05:03:42.962Z,100574.10
2018-07-19T05:06:11.755Z,100570.77
2018-07-19T05:08:40.538Z,100571.52
2018-07-19T05:11:09.787Z,100579.09
2018-07-19T05:13:38.554Z,100572.17
2018-07-19T05:16:08.116Z,100570.77
2018-07-19T05:18:36.871Z,100566.57
2018-07-19T05:21:05.744Z,100566.22
2018-07-19T05:23:34.560Z,100566.48
2018-07-19T05:26:03.575Z,100575.97
2018-07-19T05:28:32.788Z,100568.74
2018-07-19T05:31:01.995Z,100576.34
2018-07-19T05:33:30.995Z,100574.91
2018-07-19T05:36:00.819Z,100581.22
2018-07-19T05:38:29.936Z,100576.53
2018-07-19T05:40:58.900Z,100582.84
2018-07-19T05:43:28.494Z,100575.41
2018-07-19T05:45:57.281Z,100581.95
2018-07-19T05:48:26.080Z,100582.75
2018-07-19T05:50:54.886Z,100578.05
2018-07-19T05:53:24.289Z,100574.98
2018-07-19T05:55:53.951Z,100572.31
2018-07-19T05:58:22.844Z,100572.05
2018-07-19T06:00:51.562Z,100572.37
2018-07-19T06:03:21.745Z,100578.41
2018-07-19T06:05:50.580Z,100570.20
2018-07-19T06:08:19.396Z,100572.31
2018-07-19T06:10:48.873Z,100574.23
2018-07-19T06:13:17.972Z,100575.89
2018-07-19T06:15:47.382Z,100571.27
2018-07-19T06:18:16.191Z,100577.72
2018-07-19T06:20:45.032Z,100568.08
2018-07-19T06:23:13.901Z,100560.61
2018-07-19T06:25:42.711Z,100564.62
2018-07-19T06:28:11.754Z,100560.71
2018-07-19T06:30:40.643Z,100563.64
2018-07-19T06:33:09.508Z,100569.78
2018-07-19T06:35:39.816Z,100571.55
2018-07-19T06:38:08.680Z,100570.32
2018-07-19T06:40:37.504Z,100560.73
2018-07-19T06:43:07.105Z,100563.65
2018-07-19T06:45:35.961Z,100560.88
2018-07-19T06:48:04.959Z,100556.73
2018-07-19T06:50:33.980Z,100566.27
2018-07-19T06:53:03.663Z,100564.75
2018-07-19T06:55:33.057Z,100567.52
2018-07-19T06:58:02.105Z,100563.05
2018-07-19T07:00:31.192Z,100565.53
2018-07-19T07:03:01.209Z,100564.62
2018-07-19T07:05:30.208Z,100570.43
2018-07-19T07:07:59.060Z,100572.97
2018-07-19T07:10:28.686Z,100566.34
2018-07-19T07:12:57.489Z,100569.12
2018-07-19T07:15:27.419Z,100564.71
2018-07-19T07:17:56.248Z,100564.23
2018-07-19T07:20:25.064Z,100575.81
2018-07-19T07:22:53.937Z,100571.25
2018-07-19T07:25:22.723Z,100576.52
2018-07-19T07:27:51.688Z,100578.31
2018-07-19T07:30:20.548Z,100575.11
2018-07-19T07:32:49.322Z,100574.81
2018-07-19T07:35:18.195Z,100570.82
2018-07-19T07:37:47.775Z,100566.36
2018-07-19T07:40:16.692Z,100568.47
2018-07-19T07:42:46.155Z,100560.84
2018-07-19T07:45:15.178Z,100573.59
2018-07-19T07:47:44.000Z,100567.80
2018-07-19T07:50:12.803Z,100567.80
2018-07-19T07:52:43.722Z,100581.16
2018-07-19T07:55:13.412Z,100582.05
2018-07-19T07:57:42.155Z,100580.63
2018-07-19T08:00:11.013Z,100582.31
2018-07-19T08:02:40.804Z,100583.52
2018-07-19T08:05:09.791Z,100583.48
2018-07-19T08:07:38.555Z,100580.88
2018-07-19T08:10:08.506Z,100576.97
2018-07-19T08:12:37.264Z,100578.13
2018-07-19T08:15:06.711Z,100574.06
2018-07-19T08:17:36.399Z,100569.19
2018-07-19T08:20:05.426Z,100576.48
2018-07-19T08:22:34.264Z,100573.89
2018-07-19T08:25:03.439Z,100574.63
2018-07-19T08:27:32.332Z,100574.77
2018-07-19T08:30:01.452Z,100573.84
2018-07-19T08:32:30.504Z,100570.83
2018-07-19T08:34:59.479Z,100570.13
2018-07-19T08:37:29.079Z,100565.94
2018-07-19T08:39:57.970Z,100564.06
2018-07-19T08:42:27.499Z,100557.58
2018-07-19T08:44:56.783Z,100560.33
2018-07-19T08:47:25.527Z,100561.14
2018-07-19T08:49:54.320Z,100554.49
2018-07-19T08:52:23.851Z,100555.73
2018-07-19T08:54:53.520Z,100562.36
2018-07-19T08:57:22.293Z,100560.56
2018-07-19T08:59:51.106Z,100557.75
2018-07-19T09:02:20.654Z,100558.51
2018-07-19T09:04:49.400Z,100558.80
2018-07-19T09:07:18.159Z,100557.38
2018-07-19T09:09:47.676Z,100558.13
2018-07-19T09:12:16.475Z,100554.38
2018-07-19T09:14:45.255Z,100560.27
2018-07-19T09:17:14.941Z,100558.30
2018-07-19T09:19:43.713Z,100557.98
2018-07-19T09:22:12.499Z,100557.10
2018-07-19T09:24:41.363Z,100560.88
2018-07-19T09:27:10.138Z,100556.80
2018-07-19T09:29:39.024Z,100557.16
2018-07-19T09:32:07.926Z,100555.05
2018-07-19T09:34:36.819Z,100559.11
2018-07-19T09:37:06.358Z,100556.22
2018-07-19T09:39:35.098Z,100552.45
2018-07-19T09:42:04.419Z,100549.23
2018-07-19T09:44:33.292Z,100544.36
2018-07-19T09:47:02.359Z,100550.77
2018-07-19T09:49:31.418Z,100558.11
2018-07-19T09:52:01.381Z,100554.28
2018-07-19T09:54:41.980Z,100542.23
2018-07-19T09:57:11.599Z,100539.73
2018-07-19T09:59:40.332Z,100542.67
2018-07-19T10:02:10.353Z,100535.59
2018-07-19T10:04:39.086Z,100541.49
2018-07-19T10:07:08.262Z,100531.28
2018-07-19T10:09:37.672Z,100525.22
2018-07-19T10:12:06.545Z,100529.84
2018-07-19T10:14:35.336Z,100529.45
2018-07-19T10:17:04.747Z,100532.88
2018-07-19T10:19:33.659Z,100529.88
2018-07-19T10:22:02.678Z,100527.83
2018-07-19T10:24:31.599Z,100530.58
2018-07-19T10:27:00.563Z,100530.82
2018-07-19T10:29:29.476Z,100529.09
2018-07-19T10:31:59.336Z,100530.69
2018-07-19T10:34:28.338Z,100536.05
2018-07-19T10:36:58.219Z,100531.22
2018-07-19T10:39:26.993Z,100534.55
2018-07-19T10:41:56.698Z,100521.13
2018-07-19T10:44:25.505Z,100527.22
2018-07-19T10:46:54.246Z,100522.14
2018-07-19T10:49:23.014Z,100523.80
2018-07-19T10:51:51.815Z,100519.09
2018-07-19T10:54:21.273Z,100519.34
2018-07-19T10:56:50.582Z,100521.48
2018-07-19T10:59:19.351Z,100529.30
2018-07-19T11:01:48.897Z,100524.27
2018-07-19T11:04:18.633Z,100520.63
2018-07-19T11:06:47.399Z,100517.88
2018-07-19T11:09:16.205Z,100519.83
2018-07-19T11:11:45.955Z,100514.77
2018-07-19T11:14:14.929Z,100508.81
2018-07-19T11:16:44.264Z,100503.84
2018-07-19T11:19:13.051Z,100508.67
2018-07-19T11:21:41.899Z,100508.86
2018-07-19T11:24:10.960Z,100507.43
2018-07-19T11:26:39.741Z,100502.23
2018-07-19T11:29:08.640Z,100505.00
2018-07-19T11:31:37.439Z,100502.14
2018-07-19T11:34:06.198Z,100501.41
2018-07-19T11:36:35.741Z,100499.97
2018-07-19T11:39:06.498Z,100497.28
2018-07-19T11:41:35.872Z,100495.88
2018-07-19T11:44:04.724Z,100494.18
2018-07-19T11:46:33.586Z,100493.64
2018-07-19T11:49:03.419Z,100494.51
2018-07-19T11:51:33.192Z,100489.82
2018-07-19T11:54:03.125Z,100482.30
2018-07-19T11:56:33.604Z,100489.73
2018-07-19T11:59:03.472Z,100494.35
2018-07-19T12:01:34.136Z,100487.70
2018-07-19T12:04:04.925Z,100486.58
2018-07-19T12:06:33.900Z,100483.64
2018-07-19T12:09:04.463Z,100487.63
2018-07-19T12:11:35.003Z,100486.49
2018-07-19T12:14:03.917Z,100487.94
2018-07-19T12:16:34.029Z,100481.98
2018-07-19T12:19:03.266Z,100493.69
2018-07-19T12:21:33.255Z,100491.34
2018-07-19T12:24:02.476Z,100484.81
2018-07-19T12:26:33.469Z,100476.19
2018-07-19T12:29:03.484Z,100481.33
2018-07-19T12:31:32.601Z,100480.46
2018-07-19T12:34:01.475Z,100478.57
2018-07-19T12:36:32.306Z,100471.23
2018-07-19T12:39:01.412Z,100470.80
2018-07-19T12:41:32.215Z,100472.07
2018-07-19T12:44:01.467Z,100475.58
2018-07-19T12:46:31.532Z,100478.69
2018-07-19T12:49:01.444Z,100473.95
2018-07-19T12:51:30.579Z,100473.70
2018-07-19T12:54:01.576Z,100471.99
2018-07-19T12:56:32.245Z,100479.26
2018-07-19T12:59:01.131Z,100477.53
2018-07-19T13:01:30.648Z,100465.73
2018-07-19T13:04:01.776Z,100462.94
2018-07-19T13:06:31.637Z,100469.77
2018-07-19T13:09:00.633Z,100468.31
2018-07-19T13:11:30.631Z,100464.72
2018-07-19T13:13:59.601Z,100458.74
2018-07-19T13:16:30.456Z,100456.41
2018-07-19T13:18:59.459Z,100453.95
2018-07-19T13:21:28.465Z,100452.30
2018-07-19T13:23:57.271Z,100460.20
2018-07-19T13:26:26.055Z,100454.78
2018-07-19T13:28:54.910Z,100465.75
2018-07-19T13:31:23.732Z,100459.66
2018-07-19T13:33:52.588Z,100463.87
2018-07-19T13:36:22.379Z,100454.88
2018-07-19T13:38:51.132Z,100456.15
2018-07-19T13:41:21.435Z,100452.34
2018-07-19T13:43:50.204Z,100448.08
2018-07-19T13:46:18.931Z,100459.83
2018-07-19T13:48:47.712Z,100458.09
2018-07-19T13:51:16.494Z,100453.00
2018-07-19T13:53:57.636Z,100448.50
2018-07-19T13:56:27.016Z,100443.91
2018-07-19T13:58:55.781Z,100446.31
2018-07-19T14:01:25.362Z,100440.08
2018-07-19T14:03:54.960Z,100442.14
2018-07-19T14:06:23.744Z,100440.97
2018-07-19T14:08:52.520Z,100440.58
2018-07-19T14:11:22.061Z,100440.44
2018-07-19T14:13:50.864Z,100438.05
2018-07-19T14:16:20.408Z,100438.44
2018-07-19T14:18:49.263Z,100432.80
2018-07-19T14:21:18.029Z,100435.23
2018-07-19T14:23:46.805Z,100431.65
2018-07-19T14:26:15.571Z,100427.62
2018-07-19T14:28:44.440Z,100424.17
2018-07-19T14:31:13.200Z,100421.06
2018-07-19T14:33:41.991Z,100418.73
2018-07-19T14:36:11.600Z,100426.23
2018-07-19T14:38:40.473Z,100418.03
2018-07-19T14:41:10.304Z,100424.63
2018-07-19T14:43:39.712Z,100430.95
2018-07-19T14:46:08.552Z,100433.39
2018-07-19T14:48:37.525Z,100435.52
2018-07-19T14:51:06.349Z,100428.54
2018-07-19T14:53:36.122Z,100425.23
2018-07-19T14:56:05.582Z,100425.31
2018-07-19T14:58:34.424Z,100423.30
2018-07-19T15:01:03.565Z,100423.42
2018-07-19T15:03:33.432Z,100433.82
2018-07-19T15:06:02.593Z,100429.71
2018-07-19T15:08:31.591Z,100428.18
2018-07-19T15:11:01.683Z,100425.33
2018-07-19T15:13:30.612Z,100425.84
2018-07-19T15:16:00.743Z,100430.88
2018-07-19T15:18:29.738Z,100429.14
2018-07-19T15:20:59.460Z,100421.42
2018-07-19T15:23:28.472Z,100422.70
2018-07-19T15:25:57.688Z,100424.09
2018-07-19T15:28:26.580Z,100422.77
2018-07-19T15:30:55.443Z,100425.98
2018-07-19T15:33:24.231Z,100420.09
2018-07-19T15:35:53.961Z,100415.30
2018-07-19T15:38:22.722Z,100406.70
2018-07-19T15:40:51.523Z,100400.27
2018-07-19T15:43:21.379Z,100400.83
2018-07-19T15:45:50.204Z,100398.76
2018-07-19T15:48:18.985Z,100384.64
2018-07-19T15:50:47.824Z,100389.64
2018-07-19T15:53:17.159Z,100397.91
2018-07-19T15:55:46.678Z,100394.91
2018-07-19T15:58:15.520Z,100406.63
2018-07-19T16:00:44.329Z,100399.03
2018-07-19T16:03:13.912Z,100402.52
2018-07-19T16:05:42.775Z,100400.88
2018-07-19T16:08:11.563Z,100410.24
2018-07-19T16:10:41.018Z,100413.39
2018-07-19T16:13:09.812Z,100418.48
2018-07-19T16:15:39.191Z,100415.98
2018-07-19T16:18:08.079Z,100418.48
2018-07-19T16:20:36.953Z,100423.19
2018-07-19T16:23:05.883Z,100419.30
2018-07-19T16:25:34.696Z,100418.18
2018-07-19T16:28:03.889Z,100419.14
2018-07-19T16:30:32.996Z,100411.44
2018-07-19T16:33:02.406Z,100412.03
2018-07-19T16:35:32.821Z,100411.03
2018-07-19T16:38:01.970Z,100411.70
2018-07-19T16:40:31.318Z,100408.52
2018-07-19T16:43:01.642Z,100413.30
2018-07-19T16:45:30.535Z,100412.25
2018-07-19T16:47:59.526Z,100410.88
2018-07-19T16:50:28.567Z,100405.91
2018-07-19T16:52:58.631Z,100404.20
2018-07-19T16:55:28.221Z,100408.94
2018-07-19T16:57:57.032Z,100411.05
2018-07-19T17:00:25.850Z,100416.87
2018-07-19T17:02:55.092Z,100418.00
2018-07-19T17:05:23.886Z,100418.99
2018-07-19T17:07:52.673Z,100422.80
2018-07-19T17:10:22.155Z,100433.41
2018-07-19T17:12:50.967Z,100434.90
2018-07-19T17:15:20.470Z,100445.70
2018-07-19T17:17:49.277Z,100444.61
2018-07-19T17:20:18.040Z,100449.12
2018-07-19T17:22:46.865Z,100444.91
2018-07-19T17:25:15.656Z,100443.28
2018-07-19T17:27:44.534Z,100444.95
2018-07-19T17:30:13.364Z,100446.30
2018-07-19T17:32:42.135Z,100448.24
2018-07-19T17:35:10.872Z,100452.73
2018-07-19T17:37:40.574Z,100457.42
2018-07-19T17:40:09.320Z,100459.83
2018-07-19T17:42:39.044Z,100461.73
2018-07-19T17:45:07.915Z,100465.34
2018-07-19T17:47:36.662Z,100465.43
2018-07-19T17:50:05.680Z,100474.48
2018-07-19T17:52:34.983Z,100476.28
2018-07-19T17:55:04.916Z,100475.09
2018-07-19T17:57:33.840Z,100485.23
2018-07-19T18:00:02.693Z,100479.66
2018-07-19T18:02:33.179Z,100476.36
2018-07-19T18:05:02.510Z,100476.16
2018-07-19T18:07:32.333Z,100469.39
2018-07-19T18:10:03.408Z,100473.28
2018-07-19T18:12:32.647Z,100467.95
2018-07-19T18:15:01.953Z,100472.65
2018-07-19T18:17:32.670Z,100477.80
2018-07-19T18:20:02.454Z,100472.47
2018-07-19T18:22:32.419Z,100470.08
2018-07-19T18:25:01.989Z,100469.78
2018-07-19T18:27:31.859Z,100465.13
2018-07-19T18:30:01.247Z,100467.06
2018-07-19T18:32:30.376Z,100465.90
2018-07-19T18:34:59.144Z,100464.31
2018-07-19T18:37:30.410Z,100468.16
2018-07-19T18:39:59.256Z,100469.00
2018-07-19T18:42:29.418Z,100459.27
2018-07-19T18:44:58.175Z,100464.48
2018-07-19T18:47:27.031Z,100466.47
2018-07-19T18:49:55.818Z,100476.17
2018-07-19T18:52:25.349Z,100467.61
2018-07-19T18:54:54.057Z,100462.84
2018-07-19T18:57:23.413Z,100468.09
2018-07-19T18:59:52.174Z,100461.92
2018-07-19T19:02:21.407Z,100468.53
2018-07-19T19:04:50.192Z,100465.33
2018-07-19T19:07:19.016Z,100472.75
2018-07-19T19:09:48.410Z,100468.22
2018-07-19T19:12:17.200Z,100463.44
2018-07-19T19:14:45.951Z,100466.31
2018-07-19T19:17:15.432Z,100467.53
2018-07-19T19:19:44.280Z,100472.30
2018-07-19T19:22:13.131Z,100474.11
2018-07-19T19:24:41.989Z,100477.37
2018-07-19T19:27:10.752Z,100470.65
2018-07-19T19:29:39.627Z,100469.44
2018-07-19T19:32:08.764Z,100466.83
2018-07-19T19:34:37.494Z,100465.03
2018-07-19T19:37:06.857Z,100463.86
2018-07-19T19:39:35.577Z,100464.31
2018-07-19T19:42:05.116Z,100467.44
2018-07-19T19:44:33.951Z,100467.27
2018-07-19T19:47:03.255Z,100463.05
2018-07-19T19:49:33.053Z,100463.45
2018-07-19T19:52:03.037Z,100460.78
2018-07-19T19:54:33.081Z,100462.20
2018-07-19T19:57:02.894Z,100463.74
2018-07-19T19:59:31.854Z,100464.70
2018-07-19T20:02:01.650Z,100464.25
2018-07-19T20:04:31.384Z,100467.91
2018-07-19T20:07:01.427Z,100465.81
2018-07-19T20:09:31.256Z,100461.55
2018-07-19T20:12:00.447Z,100463.56
2018-07-19T20:14:29.427Z,100466.66
2018-07-19T20:16:59.378Z,100469.75
2018-07-19T20:19:28.167Z,100465.67
2018-07-19T20:21:56.907Z,100461.69
2018-07-19T20:24:25.687Z,100466.47
2018-07-19T20:26:54.451Z,100468.73
2018-07-19T20:29:23.307Z,100460.40
2018-07-19T20:31:52.163Z,100459.43
2018-07-19T20:34:21.271Z,100466.98
2018-07-19T20:36:50.897Z,100468.98
2018-07-19T20:39:19.664Z,100460.59
2018-07-19T20:41:48.940Z,100460.63
2018-07-19T20:44:17.715Z,100456.34
2018-07-19T20:46:46.456Z,100453.91
2018-07-19T20:49:15.246Z,100460.82
2018-07-19T20:51:43.990Z,100461.16
2018-07-19T20:54:13.596Z,100465.37
2018-07-19T20:56:42.975Z,100468.41
2018-07-19T20:59:11.738Z,100463.28
2018-07-19T21:01:41.427Z,100463.02
2018-07-19T21:04:10.628Z,100460.85
2018-07-19T21:06:39.380Z,100466.87
2018-07-19T21:09:10.043Z,100464.97
2018-07-19T21:11:39.599Z,100461.47
2018-07-19T21:14:09.559Z,100460.67
2018-07-19T21:16:39.261Z,100460.38
2018-07-19T21:19:08.022Z,100457.73
2018-07-19T21:21:36.763Z,100459.95
2018-07-19T21:24:05.607Z,100460.56
2018-07-19T21:26:34.386Z,100451.30
2018-07-19T21:29:04.063Z,100451.91
2018-07-19T21:31:32.922Z,100450.29
2018-07-19T21:34:01.895Z,100451.69
2018-07-19T21:36:32.479Z,100444.13
2018-07-19T21:39:01.471Z,100446.66
2018-07-19T21:41:31.267Z,100441.50
2018-07-19T21:44:00.418Z,100446.43
2018-07-19T21:46:29.457Z,100445.39
2018-07-19T21:48:58.263Z,100453.03
2018-07-19T21:51:27.059Z,100445.98
2018-07-19T21:53:56.874Z,100446.27
2018-07-19T21:56:26.331Z,100443.55
2018-07-19T21:58:55.095Z,100441.37
2018-07-19T22:01:24.740Z,100444.64
2018-07-19T22:03:54.374Z,100444.66
2018-07-19T22:06:23.166Z,100441.14
2018-07-19T22:08:51.962Z,100443.60
2018-07-19T22:11:21.723Z,100440.87
2018-07-19T22:13:50.506Z,100448.24
2018-07-19T22:16:19.811Z,100451.00
2018-07-19T22:18:48.679Z,100447.47
2018-07-19T22:21:17.515Z,100448.56
2018-07-19T22:23:46.359Z,100445.32
2018-07-19T22:26:15.173Z,100451.31
2018-07-19T22:28:44.225Z,100454.86
2018-07-19T22:31:13.464Z,100453.79
2018-07-19T22:33:42.215Z,100457.60
2018-07-19T22:36:11.574Z,100457.59
2018-07-19T22:38:40.331Z,100454.36
2018-07-19T22:41:09.227Z,100446.72
2018-07-19T22:43:38.445Z,100452.70
2018-07-19T22:46:07.288Z,100455.18
2018-07-19T22:48:36.078Z,100457.08
2018-07-19T22:51:04.945Z,100456.53
2018-07-19T22:53:34.423Z,100453.00
2018-07-19T22:56:04.429Z,100447.27
2018-07-19T22:58:33.328Z,100443.45
2018-07-19T23:01:02.621Z,100440.75
2018-07-19T23:03:33.491Z,100438.28
2018-07-19T23:06:02.487Z,100436.08
2018-07-19T23:08:31.861Z,100434.98
2018-07-19T23:11:01.725Z,100434.72
2018-07-19T23:13:30.769Z,100433.61
2018-07-19T23:16:00.646Z,100434.19
2018-07-19T23:18:31.798Z,100432.29
2018-07-19T23:21:00.718Z,100431.20
2018-07-19T23:23:29.843Z,100429.03
2018-07-19T23:25:58.701Z,100427.40
2018-07-19T23:28:27.774Z,100425.23
2018-07-19T23:30:56.702Z,100431.76
2018-07-19T23:33:26.179Z,100431.20
2018-07-19T23:36:00.168Z,100439.63
2018-07-19T23:38:34.078Z,100429.00
2018-07-19T23:41:06.272Z,100433.33
2018-07-19T23:43:39.321Z,100432.51
2018-07-19T23:46:17.951Z,100433.87
2018-07-19T23:48:47.042Z,100431.16
2018-07-19T23:51:15.847Z,100423.53
2018-07-19T23:53:45.403Z,100428.16
2018-07-19T23:56:14.792Z,100432.25
2018-07-19T23:58:43.600Z,100433.06
